createdAt,value
2023-05-13T00:00:58.096Z,9.00
2023-05-13T00:06:03.121Z,7.75
2023-05-13T00:11:07.997Z,7.00
2023-05-13T00:16:12.906Z,6.25
2023-05-13T00:21:18.053Z,7.50
2023-05-13T00:26:23.353Z,5.50
2023-05-13T00:31:28.299Z,6.00
2023-05-13T00:36:33.266Z,6.50
2023-05-13T00:41:38.124Z,6.50
2023-05-13T00:46:43.156Z,7.50
2023-05-13T00:51:48.291Z,5.75
2023-05-13T00:56:58.217Z,6.75
2023-05-13T01:02:12.847Z,6.00
2023-05-13T01:07:23.917Z,5.00
2023-05-13T01:12:34.967Z,5.00
2023-05-13T01:17:49.048Z,6.00
2023-05-13T01:22:53.829Z,4.00
2023-05-13T01:27:59.407Z,6.00
2023-05-13T01:33:05.128Z,6.00
2023-05-13T01:38:10.722Z,4.25
2023-05-13T01:43:15.768Z,5.00
2023-05-13T01:48:20.589Z,6.00
2023-05-13T01:53:26.544Z,5.00
2023-05-13T01:58:31.775Z,5.25
2023-05-13T02:03:37.896Z,5.75
2023-05-13T02:08:43.011Z,7.00
2023-05-13T02:13:47.930Z,6.00
2023-05-13T02:18:52.763Z,5.25
2023-05-13T02:24:04.008Z,4.50
2023-05-13T02:29:10.401Z,5.00
2023-05-13T02:34:15.194Z,5.25
2023-05-13T02:39:23.722Z,6.00
2023-05-13T02:44:29.622Z,5.25
2023-05-13T02:49:35.000Z,4.00
2023-05-13T02:54:39.942Z,4.25
2023-05-13T02:59:45.083Z,4.75
2023-05-13T03:04:50.138Z,4.00
2023-05-13T03:09:55.399Z,3.00
2023-05-13T03:15:00.621Z,4.00
2023-05-13T03:20:05.574Z,3.00
2023-05-13T03:25:11.191Z,3.75
2023-05-13T03:30:24.434Z,3.00
2023-05-13T03:35:50.579Z,3.00
2023-05-13T03:41:00.490Z,2.75
2023-05-13T03:46:06.454Z,4.00
2023-05-13T03:51:11.472Z,3.00
2023-05-13T03:56:17.278Z,1.75
2023-05-13T04:01:24.189Z,4.00
2023-05-13T04:06:29.027Z,3.50
2023-05-13T04:11:34.339Z,3.00
2023-05-13T04:16:39.289Z,3.00
2023-05-13T04:21:44.120Z,3.00
2023-05-13T04:26:48.957Z,2.50
2023-05-13T04:31:55.550Z,3.00
2023-05-13T04:37:00.485Z,2.25
2023-05-13T04:42:05.335Z,0.75
2023-05-13T04:47:10.247Z,3.00
2023-05-13T04:52:15.268Z,2.25
2023-05-13T04:57:20.553Z,2.50
2023-05-13T05:02:25.557Z,2.00
2023-05-13T05:07:32.790Z,2.25
2023-05-13T05:12:39.447Z,2.00
2023-05-13T05:17:44.983Z,2.00
2023-05-13T05:22:51.556Z,3.00
2023-05-13T05:28:00.590Z,3.00
2023-05-13T05:33:05.712Z,3.25
2023-05-13T05:38:13.717Z,2.00
2023-05-13T05:43:19.042Z,3.00
2023-05-13T05:48:24.629Z,2.25
2023-05-13T05:53:30.277Z,2.00
2023-05-13T05:58:37.441Z,2.00
2023-05-13T06:03:43.328Z,3.00
2023-05-13T06:08:48.284Z,2.00
2023-05-13T06:13:56.184Z,2.25
2023-05-13T06:19:01.137Z,2.50
2023-05-13T06:24:06.300Z,2.00
2023-05-13T06:29:11.286Z,1.75
2023-05-13T06:34:18.052Z,1.50
2023-05-13T06:39:22.965Z,2.00
2023-05-13T06:44:28.779Z,1.00
2023-05-13T06:49:36.658Z,2.00
2023-05-13T06:54:41.800Z,2.00
2023-05-13T06:59:46.995Z,2.00
2023-05-13T07:04:52.182Z,2.75
2023-05-13T07:09:57.297Z,2.50
2023-05-13T07:15:02.151Z,2.75
2023-05-13T07:20:07.458Z,2.00
2023-05-13T07:25:12.442Z,1.00
2023-05-13T07:30:17.637Z,2.00
2023-05-13T07:35:22.672Z,1.00
2023-05-13T07:40:27.821Z,1.00
2023-05-13T07:45:32.777Z,3.00
2023-05-13T07:50:38.300Z,2.00
2023-05-13T07:55:43.295Z,2.00
2023-05-13T08:00:48.262Z,2.00
2023-05-13T08:05:53.511Z,1.00
2023-05-13T08:10:58.708Z,1.00
2023-05-13T08:16:04.979Z,2.25
2023-05-13T08:21:10.215Z,1.75
2023-05-13T08:26:15.499Z,2.00
2023-05-13T08:31:20.528Z,3.00
2023-05-13T08:36:28.597Z,1.00
2023-05-13T08:41:34.472Z,2.00
2023-05-13T08:46:39.920Z,4.25
2023-05-13T08:51:45.800Z,3.50
2023-05-13T08:56:51.777Z,2.00
2023-05-13T09:01:57.810Z,2.00
2023-05-13T09:07:05.120Z,4.50
2023-05-13T09:12:10.128Z,5.50
2023-05-13T09:17:15.086Z,3.50
2023-05-13T09:22:20.295Z,4.50
2023-05-13T09:27:48.875Z,4.00
2023-05-13T09:33:16.872Z,4.75
2023-05-13T09:38:33.983Z,5.50
2023-05-13T09:43:41.194Z,6.50
2023-05-13T09:48:45.963Z,4.25
2023-05-13T09:53:51.038Z,6.50
2023-05-13T09:58:56.140Z,6.50
2023-05-13T10:04:01.088Z,6.00
2023-05-13T10:09:07.385Z,4.00
2023-05-13T10:14:13.444Z,6.75
2023-05-13T10:19:19.081Z,4.25
2023-05-13T10:24:23.807Z,4.00
2023-05-13T10:29:30.458Z,5.00
2023-05-13T10:34:36.284Z,5.00
2023-05-13T10:40:03.994Z,3.00
2023-05-13T10:45:09.586Z,6.50
2023-05-13T10:50:42.773Z,5.25
2023-05-13T10:55:47.750Z,4.00
2023-05-13T11:00:52.870Z,4.00
2023-05-13T11:06:17.453Z,5.00
2023-05-13T11:11:29.581Z,7.25
2023-05-13T11:16:39.563Z,4.25
2023-05-13T11:21:44.396Z,4.50
2023-05-13T11:26:50.775Z,5.00
2023-05-13T11:32:00.288Z,6.25
2023-05-13T11:37:06.868Z,5.75
2023-05-13T11:42:12.633Z,4.25
2023-05-13T11:47:27.599Z,4.00
2023-05-13T11:52:32.947Z,5.00
2023-05-13T11:57:38.088Z,4.00
2023-05-13T12:02:43.004Z,4.75
2023-05-13T12:07:48.074Z,4.75
2023-05-13T12:12:53.785Z,3.25
2023-05-13T12:17:59.408Z,5.00
2023-05-13T12:23:05.726Z,5.25
2023-05-13T12:28:18.297Z,4.50
2023-05-13T12:33:24.198Z,4.25
2023-05-13T12:38:29.254Z,4.75
2023-05-13T12:43:35.414Z,4.00
2023-05-13T12:48:40.268Z,5.00
2023-05-13T12:53:45.346Z,3.50
2023-05-13T12:58:50.709Z,5.50
2023-05-13T13:03:55.954Z,5.00
2023-05-13T13:09:01.145Z,5.00
2023-05-13T13:14:06.976Z,4.00
2023-05-13T13:19:12.221Z,4.25
2023-05-13T13:24:17.148Z,4.00
2023-05-13T13:29:22.286Z,2.75
2023-05-13T13:34:27.500Z,4.25
2023-05-13T13:39:32.527Z,5.00
2023-05-13T13:44:39.248Z,3.50
2023-05-13T13:49:45.066Z,4.00
2023-05-13T13:54:50.453Z,3.75
2023-05-13T13:59:55.672Z,4.00
2023-05-13T14:05:00.541Z,6.00
2023-05-13T14:10:06.654Z,4.25
2023-05-13T14:15:13.587Z,3.25
2023-05-13T14:20:22.127Z,6.25
2023-05-13T14:25:27.546Z,5.00
2023-05-13T14:30:33.633Z,5.75
2023-05-13T14:35:42.684Z,4.25
2023-05-13T14:40:47.464Z,6.50
2023-05-13T14:45:52.506Z,4.25
2023-05-13T14:50:57.956Z,4.75
2023-05-13T14:56:03.074Z,4.50
2023-05-13T15:01:07.937Z,4.75
2023-05-13T15:06:12.952Z,6.00
2023-05-13T15:11:18.321Z,5.75
2023-05-13T15:16:24.033Z,5.00
2023-05-13T15:21:29.031Z,5.00
2023-05-13T15:26:34.198Z,6.50
2023-05-13T15:31:39.033Z,3.50
2023-05-13T15:36:43.837Z,5.25
2023-05-13T15:41:48.476Z,5.00
2023-05-13T15:46:53.329Z,4.50
2023-05-13T15:51:59.126Z,4.25
2023-05-13T15:57:03.956Z,5.00
2023-05-13T16:02:08.793Z,5.00
2023-05-13T16:07:13.546Z,5.75
2023-05-13T16:12:18.448Z,4.00
2023-05-13T16:17:23.814Z,6.00
2023-05-13T16:22:36.031Z,6.25
2023-05-13T16:27:41.544Z,5.75
2023-05-13T16:32:48.912Z,5.00
2023-05-13T16:37:53.959Z,4.00
2023-05-13T16:43:01.124Z,4.50
2023-05-13T16:48:08.093Z,6.25
2023-05-13T16:53:13.038Z,6.25
2023-05-13T16:58:18.410Z,5.00
2023-05-13T17:03:23.624Z,5.00
2023-05-13T17:08:28.743Z,4.00
2023-05-13T17:13:33.781Z,6.00
2023-05-13T17:18:39.117Z,6.25
2023-05-13T17:23:43.961Z,6.00
2023-05-13T17:28:48.923Z,4.75
2023-05-13T17:33:53.890Z,5.00
2023-05-13T17:38:58.955Z,5.50
2023-05-13T17:44:04.122Z,5.75
2023-05-13T17:49:09.249Z,5.00
2023-05-13T17:54:15.524Z,7.25
2023-05-13T17:59:20.182Z,5.25
2023-05-13T18:04:24.938Z,8.25
2023-05-13T18:09:29.635Z,6.75
2023-05-13T18:14:34.971Z,5.75
2023-05-13T18:19:40.040Z,6.50
2023-05-13T18:24:44.844Z,6.00
2023-05-13T18:29:50.620Z,6.25
2023-05-13T18:34:55.856Z,6.00
2023-05-13T18:40:00.806Z,6.50
2023-05-13T18:45:06.031Z,6.00
2023-05-13T18:50:11.008Z,6.25
2023-05-13T18:55:15.959Z,6.00
2023-05-13T19:00:20.944Z,6.25
2023-05-13T19:05:26.136Z,8.50
2023-05-13T19:10:33.546Z,6.50
2023-05-13T19:15:41.906Z,6.25
2023-05-13T19:20:48.025Z,7.00
2023-05-13T19:25:52.893Z,6.00
2023-05-13T19:30:58.352Z,8.75
2023-05-13T19:36:03.097Z,8.00
2023-05-13T19:41:09.004Z,6.75
2023-05-13T19:46:13.933Z,6.00
2023-05-13T19:51:19.495Z,7.00
2023-05-13T19:56:24.422Z,5.50
2023-05-13T20:01:29.288Z,7.00
2023-05-13T20:06:34.230Z,6.00
2023-05-13T20:11:38.723Z,7.50
2023-05-13T20:16:43.592Z,6.00
2023-05-13T20:21:48.796Z,8.00
2023-05-13T20:26:53.521Z,7.75
2023-05-13T20:31:58.268Z,8.00
2023-05-13T20:37:03.084Z,9.25
2023-05-13T20:42:08.097Z,8.00
2023-05-13T20:47:12.983Z,6.75
2023-05-13T20:52:18.074Z,8.25
2023-05-13T20:57:23.445Z,7.50
2023-05-13T21:02:28.638Z,7.00
2023-05-13T21:07:33.282Z,7.75
2023-05-13T21:12:38.050Z,6.75
2023-05-13T21:17:43.156Z,8.00
2023-05-13T21:22:48.715Z,8.00
2023-05-13T21:27:53.605Z,8.25
2023-05-13T21:32:58.351Z,8.00
2023-05-13T21:38:11.396Z,8.50
2023-05-13T21:43:17.090Z,8.00
2023-05-13T21:48:22.698Z,9.50
2023-05-13T21:53:27.591Z,9.00
2023-05-13T21:58:32.277Z,8.75
2023-05-13T22:03:37.203Z,11.00
2023-05-13T22:08:42.096Z,9.25
2023-05-13T22:13:47.126Z,9.75
2023-05-13T22:18:52.448Z,12.00
2023-05-13T22:23:57.420Z,13.00
2023-05-13T22:29:02.399Z,16.75
2023-05-13T22:34:07.321Z,14.25
2023-05-13T22:39:13.481Z,18.00
2023-05-13T22:44:18.142Z,16.50
2023-05-13T22:49:23.029Z,16.75
2023-05-13T22:54:27.972Z,16.25
2023-05-13T22:59:32.551Z,18.00
2023-05-13T23:04:37.507Z,18.75
2023-05-13T23:09:42.611Z,19.50
2023-05-13T23:14:47.450Z,19.00
2023-05-13T23:19:52.124Z,19.00
2023-05-13T23:24:57.159Z,20.00
2023-05-13T23:30:01.997Z,20.00
2023-05-13T23:35:07.158Z,23.25
2023-05-13T23:40:11.896Z,21.25
2023-05-13T23:45:17.394Z,20.25
2023-05-13T23:50:22.464Z,22.00
2023-05-13T23:55:27.499Z,22.00
